createdAt,value
2023-05-10T04:46:27.849Z,9.07
2023-05-10T04:48:54.507Z,8.30
2023-05-10T04:51:21.501Z,8.43
2023-05-10T04:54:01.552Z,8.40
2023-05-10T04:56:32.291Z,8.73
2023-05-10T04:58:58.817Z,9.05
2023-05-10T05:01:25.322Z,8.98
2023-05-10T05:03:53.933Z,10.70
2023-05-10T05:06:22.010Z,9.07
2023-05-10T05:08:50.392Z,8.68
2023-05-10T05:13:48.006Z,9.23
2023-05-10T05:16:14.502Z,9.45
2023-05-10T05:18:40.999Z,9.48
2023-05-10T05:21:17.310Z,9.10
2023-05-10T05:23:44.077Z,9.90
2023-05-10T05:29:56.614Z,10.35
2023-05-10T05:32:23.406Z,10.77
2023-05-10T05:34:50.003Z,11.10
2023-05-10T05:37:17.237Z,10.88
2023-05-10T05:39:43.896Z,11.00
2023-05-10T05:42:10.929Z,12.35
2023-05-10T05:44:37.413Z,11.65
2023-05-10T05:47:04.268Z,10.00
2023-05-10T05:49:30.892Z,10.40
2023-05-10T05:52:01.563Z,10.95
2023-05-10T05:54:28.669Z,12.00
2023-05-10T05:56:57.111Z,13.00
2023-05-10T05:59:24.767Z,12.00
2023-05-10T06:01:51.616Z,12.02
2023-05-10T06:04:18.460Z,12.70
2023-05-10T06:06:45.011Z,12.93
2023-05-10T06:09:11.467Z,11.52
2023-05-10T06:11:38.238Z,12.88
2023-05-10T06:14:05.586Z,13.18
2023-05-10T06:16:32.677Z,15.77
2023-05-10T06:18:59.227Z,15.10
2023-05-10T06:21:26.448Z,13.90
2023-05-10T06:23:52.924Z,15.23
2023-05-10T06:26:19.413Z,14.90
2023-05-10T06:28:45.868Z,16.05
2023-05-10T06:31:12.881Z,13.15
2023-05-10T06:33:39.421Z,10.75
2023-05-10T06:36:06.166Z,12.77
2023-05-10T06:38:32.626Z,12.60
2023-05-10T06:40:59.279Z,11.98
2023-05-10T06:43:27.180Z,13.50
2023-05-10T06:45:53.688Z,13.40
2023-05-10T06:48:20.293Z,12.38
2023-05-10T06:50:46.915Z,11.90
2023-05-10T06:53:14.210Z,11.30
2023-05-10T06:55:40.773Z,10.75
2023-05-10T06:58:07.216Z,10.80
2023-05-10T07:00:33.735Z,11.10
2023-05-10T07:03:00.353Z,11.30
2023-05-10T07:05:28.832Z,11.75
2023-05-10T07:07:55.562Z,11.70
2023-05-10T07:10:22.033Z,11.55
2023-05-10T07:12:49.084Z,12.85
2023-05-10T07:15:17.100Z,11.23
2023-05-10T07:17:45.696Z,12.27
2023-05-10T07:20:12.941Z,13.98
2023-05-10T07:22:39.440Z,15.50
2023-05-10T07:25:06.271Z,17.95
2023-05-10T07:27:33.375Z,17.33
2023-05-10T07:29:59.854Z,16.13
2023-05-10T07:32:26.520Z,16.13
2023-05-10T07:34:53.200Z,17.02
2023-05-10T07:37:19.655Z,17.58
2023-05-10T07:39:46.239Z,17.40
2023-05-10T07:42:12.738Z,18.65
2023-05-10T07:44:39.215Z,17.10
2023-05-10T07:47:05.719Z,12.48
2023-05-10T07:49:32.139Z,12.05
2023-05-10T07:51:58.678Z,12.65
2023-05-10T07:54:25.141Z,11.23
2023-05-10T07:56:51.974Z,10.45
2023-05-10T07:59:24.848Z,10.93
2023-05-10T08:02:02.834Z,12.13
2023-05-10T08:04:37.148Z,12.30
2023-05-10T08:07:03.751Z,16.80
2023-05-10T08:09:30.709Z,14.88
2023-05-10T08:11:57.465Z,13.85
2023-05-10T08:14:23.915Z,13.05
2023-05-10T08:16:50.356Z,12.63
2023-05-10T08:19:20.096Z,12.27
2023-05-10T08:21:46.772Z,14.23
2023-05-10T08:24:13.256Z,14.48
2023-05-10T08:26:39.807Z,14.23
2023-05-10T08:29:06.250Z,15.35
2023-05-10T08:31:32.919Z,16.05
2023-05-10T08:33:59.465Z,16.50
2023-05-10T08:36:25.945Z,13.23
2023-05-10T08:38:53.128Z,13.48
2023-05-10T08:41:24.865Z,11.68
2023-05-10T08:43:52.029Z,11.88
2023-05-10T08:46:19.462Z,12.02
2023-05-10T08:48:47.366Z,12.07
2023-05-10T08:51:22.881Z,9.35
2023-05-10T08:53:49.519Z,12.23
2023-05-10T08:56:16.662Z,11.80
2023-05-10T08:58:43.480Z,12.02
2023-05-10T09:01:10.806Z,9.63
2023-05-10T09:03:39.346Z,10.60
2023-05-10T09:06:06.102Z,9.10
2023-05-10T09:08:32.653Z,7.90
2023-05-10T09:10:59.218Z,7.85
2023-05-10T09:13:25.917Z,8.40
2023-05-10T09:15:52.822Z,4.80
2023-05-10T09:18:19.472Z,1.10
2023-05-10T09:20:46.401Z,3.42
2023-05-10T09:23:12.975Z,3.20
2023-05-10T09:25:39.658Z,5.63
2023-05-10T09:28:10.050Z,3.97
2023-05-10T09:30:37.014Z,5.60
2023-05-10T09:33:03.919Z,2.35
2023-05-10T09:35:31.640Z,0.93
2023-05-10T09:38:00.212Z,1.20
2023-05-10T09:40:27.658Z,0.98
2023-05-10T09:42:59.139Z,0.90
2023-05-10T09:45:26.581Z,0.88
2023-05-10T09:47:53.515Z,0.90
2023-05-10T09:50:20.490Z,0.80
2023-05-10T09:52:48.037Z,0.80
2023-05-10T09:55:18.577Z,0.86
2023-05-10T09:57:47.426Z,0.82
2023-05-10T10:00:17.869Z,0.80
2023-05-10T10:02:45.969Z,1.23
2023-05-10T10:05:12.676Z,0.85
2023-05-10T10:07:39.346Z,0.90
2023-05-10T10:10:06.322Z,0.90
2023-05-10T10:12:32.918Z,0.80
2023-05-10T10:15:00.683Z,0.85
2023-05-10T10:17:28.761Z,0.80
2023-05-10T10:19:56.577Z,0.75
2023-05-10T10:22:23.268Z,0.93
2023-05-10T10:24:51.303Z,0.85
2023-05-10T10:27:24.587Z,0.80
2023-05-10T10:29:57.230Z,0.70
2023-05-10T10:32:31.126Z,0.77
2023-05-10T10:34:57.974Z,1.02
2023-05-10T10:37:25.088Z,0.82
2023-05-10T10:39:51.723Z,0.70
2023-05-10T10:42:38.175Z,0.77
2023-05-10T10:45:14.604Z,0.90
2023-05-10T10:47:41.349Z,0.80
2023-05-10T10:50:09.147Z,0.70
2023-05-10T10:52:35.642Z,0.80
2023-05-10T10:55:12.669Z,0.80
2023-05-10T10:57:41.999Z,0.80
2023-05-10T11:00:23.487Z,0.93
2023-05-10T11:02:56.116Z,0.82
2023-05-10T11:05:37.878Z,0.80
2023-05-10T11:08:08.665Z,0.70
2023-05-10T11:10:35.328Z,0.70
2023-05-10T11:13:09.215Z,0.80
2023-05-10T11:15:36.704Z,0.98
2023-05-10T11:18:26.177Z,0.68
2023-05-10T11:21:00.452Z,0.70
2023-05-10T11:23:33.754Z,0.90
2023-05-10T11:26:01.480Z,0.60
2023-05-10T11:28:29.339Z,0.80
2023-05-10T11:30:55.927Z,0.90
2023-05-10T11:33:22.506Z,0.70
2023-05-10T11:35:49.094Z,0.82
2023-05-10T11:38:15.806Z,0.80
2023-05-10T11:40:43.180Z,1.00
2023-05-10T11:43:11.218Z,0.70
2023-05-10T11:45:37.934Z,0.70
2023-05-10T11:48:04.786Z,0.73
2023-05-10T11:50:31.445Z,0.73
2023-05-10T11:52:58.033Z,0.82
2023-05-10T11:55:25.362Z,0.82
2023-05-10T11:57:55.410Z,0.80
2023-05-10T12:00:22.208Z,0.80
2023-05-10T12:06:32.009Z,0.70
2023-05-10T12:08:59.001Z,0.63
2023-05-10T12:11:26.263Z,0.90
2023-05-10T12:13:52.755Z,0.73
2023-05-10T12:16:20.392Z,0.70
2023-05-10T12:18:51.963Z,0.77
2023-05-10T12:21:19.191Z,0.60
2023-05-10T12:23:46.687Z,0.80
2023-05-10T12:26:13.226Z,0.70
2023-05-10T12:28:40.530Z,0.70
2023-05-10T12:31:07.538Z,1.00
2023-05-10T12:33:39.808Z,0.63
2023-05-10T12:36:07.678Z,0.80
2023-05-10T12:38:35.376Z,0.70
2023-05-10T12:41:02.904Z,0.63
2023-05-10T12:43:29.515Z,0.60
2023-05-10T12:45:56.252Z,0.65
2023-05-10T12:48:23.088Z,0.90
2023-05-10T12:50:49.560Z,1.05
2023-05-10T12:53:19.028Z,1.00
2023-05-10T12:55:45.731Z,1.15
2023-05-10T12:58:15.769Z,1.10
2023-05-10T13:00:47.660Z,1.05
2023-05-10T13:03:52.861Z,1.00
2023-05-10T13:06:19.319Z,0.90
2023-05-10T13:08:45.934Z,1.65
2023-05-10T13:11:12.447Z,1.63
2023-05-10T13:13:38.946Z,0.70
2023-05-10T13:16:05.659Z,0.77
2023-05-10T13:18:32.399Z,0.80
2023-05-10T13:20:58.899Z,0.75
2023-05-10T13:23:25.341Z,0.70
2023-05-10T13:25:51.832Z,0.63
2023-05-10T13:28:18.300Z,0.75
2023-05-10T13:30:44.809Z,0.80
2023-05-10T13:33:11.319Z,0.90
2023-05-10T13:35:37.807Z,0.80
2023-05-10T13:38:04.363Z,0.70
2023-05-10T13:40:30.936Z,1.00
2023-05-10T13:42:57.408Z,0.80
2023-05-10T13:45:23.916Z,0.70
2023-05-10T13:47:50.541Z,0.80
2023-05-10T13:50:17.855Z,0.80
2023-05-10T13:52:44.392Z,0.70
2023-05-10T13:55:13.324Z,0.60
2023-05-10T13:57:40.012Z,0.63
2023-05-10T14:00:07.254Z,0.82
2023-05-10T14:02:34.511Z,0.90
2023-05-10T14:05:01.163Z,0.80
2023-05-10T14:07:27.642Z,0.80
2023-05-10T14:09:54.165Z,0.88
2023-05-10T14:12:20.629Z,1.20
2023-05-10T14:14:47.147Z,1.20
2023-05-10T14:17:13.741Z,0.90
2023-05-10T14:19:40.440Z,1.27
2023-05-10T14:22:06.976Z,1.92
2023-05-10T14:24:33.654Z,1.27
2023-05-10T14:27:00.171Z,1.15
2023-05-10T14:29:27.036Z,1.80
2023-05-10T14:31:53.610Z,1.23
2023-05-10T14:34:20.120Z,1.60
2023-05-10T14:36:46.698Z,1.00
2023-05-10T14:39:14.243Z,1.10
2023-05-10T14:41:45.501Z,1.00
2023-05-10T14:44:12.123Z,1.00
2023-05-10T14:46:39.172Z,1.13
2023-05-10T14:49:05.713Z,1.00
2023-05-10T14:51:32.723Z,1.02
2023-05-10T14:53:59.384Z,1.23
2023-05-10T14:56:26.824Z,1.05
2023-05-10T14:58:53.369Z,1.00
2023-05-10T15:01:20.217Z,1.20
2023-05-10T15:03:47.056Z,1.20
2023-05-10T15:06:15.464Z,1.13
2023-05-10T15:08:42.201Z,1.83
2023-05-10T15:11:08.665Z,1.30
2023-05-10T15:13:35.168Z,1.60
2023-05-10T15:23:57.408Z,1.33
2023-05-10T15:26:24.962Z,1.30
2023-05-10T15:28:51.446Z,1.30
2023-05-10T15:31:17.971Z,1.30
2023-05-10T15:33:44.473Z,1.35
2023-05-10T15:36:11.023Z,1.10
2023-05-10T15:38:38.160Z,1.25
2023-05-10T15:41:04.703Z,1.30
2023-05-10T15:43:31.144Z,1.30
2023-05-10T15:45:57.689Z,1.60
2023-05-10T15:48:24.236Z,1.30
2023-05-10T15:50:50.928Z,1.58
2023-05-10T15:53:17.609Z,1.80
2023-05-10T15:55:44.144Z,1.67
2023-05-10T15:58:11.332Z,2.47
2023-05-10T16:00:39.070Z,2.47
2023-05-10T16:03:05.798Z,2.70
2023-05-10T16:05:33.683Z,2.45
2023-05-10T16:08:00.835Z,2.70
2023-05-10T16:10:27.654Z,2.45
2023-05-10T16:12:54.914Z,2.53
2023-05-10T16:15:21.906Z,2.90
2023-05-10T16:17:48.690Z,2.83
2023-05-10T16:20:15.561Z,3.15
2023-05-10T16:22:42.494Z,2.70
2023-05-10T16:25:10.614Z,2.78
2023-05-10T16:27:38.267Z,2.97
2023-05-10T16:30:05.120Z,3.00
2023-05-10T16:32:31.674Z,2.70
2023-05-10T16:34:59.039Z,3.30
2023-05-10T16:37:25.571Z,2.97
2023-05-10T16:39:52.268Z,3.42
2023-05-10T16:42:18.783Z,3.15
2023-05-10T16:44:45.365Z,3.47
2023-05-10T16:47:11.875Z,3.53
2023-05-10T16:49:38.414Z,3.35
2023-05-10T16:52:04.950Z,3.08
2023-05-10T16:54:31.383Z,3.15
2023-05-10T16:56:57.860Z,3.28
2023-05-10T16:59:24.435Z,3.42
2023-05-10T17:01:53.168Z,3.03
2023-05-10T17:04:19.890Z,2.80
2023-05-10T17:06:46.711Z,3.00
2023-05-10T17:09:13.349Z,3.75
2023-05-10T17:12:04.933Z,2.80
2023-05-10T17:14:34.171Z,2.88
2023-05-10T17:17:00.952Z,3.10
2023-05-10T17:19:28.334Z,3.17
2023-05-10T17:21:54.880Z,3.00
2023-05-10T17:24:21.400Z,3.55
2023-05-10T17:26:51.016Z,3.45
2023-05-10T17:29:17.628Z,2.85
2023-05-10T17:31:44.135Z,3.20
2023-05-10T17:34:10.930Z,3.50
2023-05-10T17:36:37.539Z,3.58
2023-05-10T17:39:04.032Z,3.25
2023-05-10T17:41:30.688Z,2.85
2023-05-10T17:43:57.222Z,3.38
2023-05-10T17:46:31.267Z,4.13
2023-05-10T17:49:14.332Z,3.70
2023-05-10T17:51:44.174Z,2.50
2023-05-10T17:54:10.683Z,2.53
2023-05-10T17:56:38.380Z,2.75
2023-05-10T17:59:05.516Z,2.80
2023-05-10T18:12:26.898Z,2.95
2023-05-10T18:18:10.586Z,2.67
2023-05-10T18:20:38.714Z,5.85
2023-05-10T18:23:05.261Z,3.95
2023-05-10T18:25:31.893Z,3.10
2023-05-10T18:28:22.944Z,3.10
2023-05-10T18:30:49.438Z,2.92
2023-05-10T18:33:16.000Z,3.35
2023-05-10T18:35:42.514Z,3.28
2023-05-10T18:38:12.458Z,3.05
2023-05-10T18:40:39.522Z,2.40
2023-05-10T18:45:48.813Z,2.67
2023-05-10T18:48:15.321Z,2.90
2023-05-10T18:50:42.321Z,3.08
2023-05-10T18:53:08.788Z,3.10
2023-05-10T18:55:35.299Z,3.00
2023-05-10T18:58:01.877Z,2.90
2023-05-10T19:00:28.343Z,3.10
2023-05-10T19:02:55.002Z,3.20
2023-05-10T19:05:21.654Z,3.72
2023-05-10T19:07:48.158Z,3.00
2023-05-10T19:10:14.629Z,3.23
2023-05-10T19:12:41.761Z,3.33
2023-05-10T19:15:08.830Z,4.07
2023-05-10T19:17:36.570Z,3.55
2023-05-10T19:20:04.107Z,3.55
2023-05-10T19:25:00.323Z,3.15
2023-05-10T19:27:27.743Z,2.95
2023-05-10T19:29:56.096Z,3.67
2023-05-10T19:32:24.494Z,3.83
2023-05-10T19:34:53.934Z,4.18
2023-05-10T19:37:22.740Z,4.43
2023-05-10T19:39:49.543Z,3.57
2023-05-10T19:42:16.405Z,4.00
2023-05-10T19:44:43.262Z,3.85
2023-05-10T19:47:11.990Z,3.83
2023-05-10T19:49:38.793Z,4.68
2023-05-10T19:52:08.354Z,4.00
2023-05-10T19:54:35.353Z,3.85
2023-05-10T19:57:01.836Z,4.00
2023-05-10T19:59:28.594Z,4.50
2023-05-10T20:01:56.319Z,4.60
2023-05-10T20:04:23.585Z,4.28
2023-05-10T20:06:50.181Z,4.47
2023-05-10T20:09:16.878Z,4.47
2023-05-10T20:11:43.656Z,4.15
2023-05-10T20:14:10.621Z,4.72
2023-05-10T20:16:37.323Z,5.55
2023-05-10T20:19:05.633Z,6.45
2023-05-10T20:21:34.224Z,5.72
2023-05-10T20:26:29.085Z,6.38
2023-05-10T20:28:56.577Z,6.30
2023-05-10T20:31:23.140Z,5.00
2023-05-10T20:33:49.665Z,5.03
2023-05-10T20:36:17.784Z,5.50
2023-05-10T20:38:44.327Z,4.57
2023-05-10T20:41:12.278Z,4.15
2023-05-10T20:43:38.979Z,4.30
2023-05-10T20:46:06.272Z,4.63
2023-05-10T20:48:33.067Z,4.45
2023-05-10T20:51:00.885Z,4.10
2023-05-10T20:53:27.487Z,3.97
2023-05-10T20:55:54.005Z,4.05
2023-05-10T20:58:20.512Z,4.05
2023-05-10T21:00:47.124Z,3.80
2023-05-10T21:03:14.242Z,4.00
2023-05-10T21:05:40.885Z,3.80
